createdAt,value
2019-02-11T00:00:02.485Z,427.33
2019-02-11T00:02:31.167Z,436.77
2019-02-11T00:04:59.662Z,414.30
2019-02-11T00:07:28.202Z,415.70
2019-02-11T00:09:56.755Z,393.40
2019-02-11T00:12:25.326Z,399.97
2019-02-11T00:15:00.028Z,422.77
2019-02-11T00:17:28.506Z,421.33
2019-02-11T00:19:57.039Z,399.50
2019-02-11T00:22:25.596Z,400.97
2019-02-11T00:24:54.131Z,434.47
2019-02-11T00:27:22.700Z,436.07
2019-02-11T00:29:51.299Z,434.87
2019-02-11T00:32:19.800Z,467.67
2019-02-11T00:34:48.416Z,600.50
2019-02-11T00:37:16.957Z,439.33
2019-02-11T00:39:45.459Z,458.17
2019-02-11T00:42:13.984Z,427.40
2019-02-11T00:44:42.553Z,431.93
2019-02-11T00:47:17.134Z,514.13
2019-02-11T00:49:45.670Z,429.90
2019-02-11T00:52:14.251Z,423.90
2019-02-11T00:54:42.920Z,436.57
2019-02-11T00:57:11.436Z,450.07
2019-02-11T00:59:39.999Z,445.97
2019-02-11T01:02:08.668Z,452.33
2019-02-11T01:04:37.229Z,416.23
2019-02-11T01:07:12.595Z,427.80
2019-02-11T01:09:41.267Z,413.33
2019-02-11T01:12:09.859Z,414.70
2019-02-11T01:14:38.409Z,403.50
2019-02-11T01:17:07.061Z,394.60
2019-02-11T01:19:35.752Z,403.90
2019-02-11T01:22:04.394Z,391.17
2019-02-11T01:24:33.007Z,388.20
2019-02-11T01:27:01.606Z,386.80
2019-02-11T01:29:30.223Z,380.43
2019-02-11T01:31:58.829Z,376.73
2019-02-11T01:34:27.394Z,351.17
2019-02-11T01:36:55.947Z,394.67
2019-02-11T01:39:24.497Z,374.17
2019-02-11T01:41:53.083Z,414.63
2019-02-11T01:44:21.697Z,383.73
2019-02-11T01:46:50.276Z,409.87
2019-02-11T01:49:18.929Z,376.40
2019-02-11T01:51:47.463Z,393.57
2019-02-11T01:54:16.146Z,423.47
2019-02-11T01:56:44.841Z,414.10
2019-02-11T01:59:13.420Z,403.40
2019-02-11T02:01:42.115Z,374.43
2019-02-11T02:04:10.756Z,367.30
2019-02-11T02:06:39.374Z,378.77
2019-02-11T02:09:08.350Z,384.20
2019-02-11T02:11:36.846Z,391.17
2019-02-11T02:14:05.427Z,355.83
2019-02-11T02:16:33.996Z,373.20
2019-02-11T02:19:02.525Z,381.97
2019-02-11T02:21:31.100Z,419.77
2019-02-11T02:23:59.713Z,410.77
2019-02-11T02:26:28.281Z,441.70
2019-02-11T02:28:56.771Z,411.47
2019-02-11T02:31:25.296Z,399.07
2019-02-11T02:33:53.810Z,387.83
2019-02-11T02:36:27.998Z,398.93
2019-02-11T02:38:56.567Z,376.93
2019-02-11T02:41:25.187Z,376.67
2019-02-11T02:43:55.843Z,356.23
2019-02-11T02:46:24.071Z,389.87
2019-02-11T02:48:52.645Z,401.33
2019-02-11T02:51:21.322Z,400.07
2019-02-11T02:53:49.871Z,375.00
2019-02-11T02:56:18.438Z,384.97
2019-02-11T02:58:47.139Z,378.63
2019-02-11T03:01:15.780Z,357.07
2019-02-11T03:03:44.397Z,379.33
2019-02-11T03:06:12.971Z,369.20
2019-02-11T03:08:44.700Z,360.63
2019-02-11T03:11:16.179Z,354.83
2019-02-11T03:13:44.859Z,383.57
2019-02-11T03:16:16.707Z,379.13
2019-02-11T03:18:45.370Z,380.63
2019-02-11T03:21:14.027Z,407.93
2019-02-11T03:23:47.299Z,417.57
2019-02-11T03:26:15.877Z,392.70
2019-02-11T03:28:44.493Z,407.03
2019-02-11T03:31:13.027Z,399.97
2019-02-11T03:33:41.604Z,382.47
2019-02-11T03:36:10.262Z,390.67
2019-02-11T03:38:38.888Z,414.97
2019-02-11T03:41:07.576Z,405.43
2019-02-11T03:43:36.164Z,397.40
2019-02-11T03:46:04.852Z,398.87
2019-02-11T03:48:33.456Z,393.83
2019-02-11T03:51:02.087Z,396.40
2019-02-11T03:53:30.820Z,415.83
2019-02-11T03:55:59.512Z,390.67
2019-02-11T03:58:28.075Z,403.30
2019-02-11T04:00:56.671Z,387.93
2019-02-11T04:03:25.374Z,385.43
2019-02-11T04:05:54.020Z,412.77
2019-02-11T04:08:22.568Z,416.53
2019-02-11T04:10:51.132Z,410.67
2019-02-11T04:13:19.826Z,476.33
2019-02-11T04:15:48.447Z,466.63
2019-02-11T04:18:19.773Z,464.50
2019-02-11T04:20:49.114Z,444.40
2019-02-11T04:23:17.981Z,443.40
2019-02-11T04:25:46.550Z,437.27
2019-02-11T04:28:15.058Z,410.43
2019-02-11T04:30:43.628Z,419.60
2019-02-11T04:33:12.371Z,415.63
2019-02-11T04:35:44.781Z,462.90
2019-02-11T04:38:13.476Z,427.27
2019-02-11T04:40:42.119Z,415.87
2019-02-11T04:43:10.713Z,394.23
2019-02-11T04:45:39.280Z,397.00
2019-02-11T04:48:07.925Z,380.43
2019-02-11T04:50:36.579Z,347.67
2019-02-11T04:53:05.241Z,343.23
2019-02-11T04:55:33.889Z,354.90
2019-02-11T04:58:05.628Z,321.43
2019-02-11T05:00:34.282Z,338.60
2019-02-11T05:03:02.893Z,319.67
2019-02-11T05:05:31.481Z,333.03
2019-02-11T05:08:00.147Z,399.63
2019-02-11T05:10:28.719Z,418.40
2019-02-11T05:12:57.417Z,395.80
2019-02-11T05:15:26.030Z,393.37
2019-02-11T05:17:54.570Z,381.57
2019-02-11T05:20:23.219Z,396.20
2019-02-11T05:22:51.786Z,393.67
2019-02-11T05:25:20.420Z,397.47
2019-02-11T05:27:49.124Z,379.27
2019-02-11T05:30:17.797Z,355.40
2019-02-11T05:32:46.452Z,350.30
2019-02-11T05:35:15.152Z,346.03
2019-02-11T05:37:44.265Z,303.07
2019-02-11T05:40:19.026Z,298.93
2019-02-11T05:42:47.805Z,274.07
2019-02-11T05:45:16.420Z,310.37
2019-02-11T05:47:44.925Z,340.50
2019-02-11T05:50:13.741Z,381.37
2019-02-11T05:52:42.397Z,363.90
2019-02-11T05:55:11.040Z,400.07
2019-02-11T05:57:39.946Z,397.40
2019-02-11T06:00:12.215Z,412.83
2019-02-11T06:02:41.034Z,419.77
2019-02-11T06:05:11.577Z,406.90
2019-02-11T06:07:40.580Z,398.43
2019-02-11T06:10:11.383Z,383.23
2019-02-11T06:12:42.999Z,420.67
2019-02-11T06:15:11.902Z,439.20
2019-02-11T06:17:40.858Z,393.63
2019-02-11T06:20:10.511Z,384.37
2019-02-11T06:22:42.208Z,345.33
2019-02-11T06:25:10.996Z,337.47
2019-02-11T06:27:41.312Z,317.70
2019-02-11T06:30:12.593Z,311.15
2019-02-11T06:32:41.595Z,331.80
2019-02-11T06:35:11.844Z,279.23
2019-02-11T06:37:43.591Z,276.87
2019-02-11T06:40:15.015Z,293.30
2019-02-11T06:42:43.595Z,298.15
2019-02-11T06:45:13.367Z,279.10
2019-02-11T06:47:42.506Z,248.23
2019-02-11T06:50:15.594Z,257.30
2019-02-11T06:52:44.323Z,278.93
2019-02-11T06:55:13.203Z,293.40
2019-02-11T06:57:41.886Z,320.63
2019-02-11T07:00:17.197Z,310.23
2019-02-11T07:02:45.927Z,321.10
2019-02-11T07:05:14.724Z,326.33
2019-02-11T07:07:46.612Z,315.57
2019-02-11T07:10:15.521Z,295.77
2019-02-11T07:12:44.345Z,299.13
2019-02-11T07:15:21.729Z,246.67
2019-02-11T07:17:44.898Z,223.13
2019-02-11T07:20:15.106Z,221.13
2019-02-11T07:22:46.953Z,210.87
2019-02-11T07:25:16.686Z,184.37
2019-02-11T07:27:47.096Z,172.63
2019-02-11T07:30:22.791Z,169.03
2019-02-11T07:32:54.818Z,156.53
2019-02-11T07:35:30.138Z,136.83
2019-02-11T07:37:59.137Z,129.73
2019-02-11T07:40:28.963Z,120.70
2019-02-11T07:43:05.079Z,90.90
2019-02-11T07:45:36.853Z,93.03
2019-02-11T07:48:05.862Z,79.60
2019-02-11T07:50:37.708Z,84.73
2019-02-11T07:53:14.108Z,84.13
2019-02-11T07:55:44.728Z,84.10
2019-02-11T07:58:16.587Z,82.33
2019-02-11T08:00:46.963Z,86.47
2019-02-11T08:03:15.673Z,85.23
2019-02-11T08:05:44.380Z,90.80
2019-02-11T08:08:12.941Z,96.13
2019-02-11T08:10:41.594Z,98.00
2019-02-11T08:13:10.190Z,104.47
2019-02-11T08:15:38.901Z,99.90
2019-02-11T08:18:10.507Z,111.50
2019-02-11T08:20:39.355Z,107.07
2019-02-11T08:23:12.954Z,118.93
2019-02-11T08:25:38.495Z,123.57
2019-02-11T08:28:19.649Z,124.33
2019-02-11T08:30:49.894Z,124.47
2019-02-11T08:33:19.204Z,139.90
2019-02-11T08:35:48.146Z,127.80
2019-02-11T08:38:19.960Z,124.93
2019-02-11T08:40:55.754Z,125.37
2019-02-11T08:43:24.754Z,126.50
2019-02-11T08:45:53.706Z,131.87
2019-02-11T08:48:22.439Z,119.97
2019-02-11T08:50:56.597Z,113.90
2019-02-11T08:53:25.752Z,106.53
2019-02-11T08:55:54.495Z,129.77
2019-02-11T08:58:26.111Z,106.93
2019-02-11T09:00:54.766Z,104.63
2019-02-11T09:03:23.874Z,104.97
2019-02-11T09:05:52.691Z,100.77
2019-02-11T09:08:21.468Z,103.97
2019-02-11T09:10:50.398Z,99.53
2019-02-11T09:13:19.213Z,97.63
2019-02-11T09:15:55.267Z,96.70
2019-02-11T09:18:22.742Z,96.87
2019-02-11T09:20:52.871Z,95.73
2019-02-11T09:23:24.694Z,99.53
2019-02-11T09:25:55.851Z,105.33
2019-02-11T09:28:24.959Z,89.53
2019-02-11T09:30:53.981Z,88.63
2019-02-11T09:33:23.090Z,98.60
2019-02-11T09:35:54.899Z,99.93
2019-02-11T09:38:24.012Z,99.20
2019-02-11T09:40:58.668Z,106.73
2019-02-11T09:43:27.617Z,112.47
2019-02-11T09:46:03.912Z,109.37
2019-02-11T09:48:32.523Z,107.37
2019-02-11T09:51:02.204Z,110.70
2019-02-11T09:53:31.322Z,111.90
2019-02-11T09:56:04.246Z,114.80
2019-02-11T09:58:32.972Z,103.67
2019-02-11T10:01:01.645Z,101.67
2019-02-11T10:03:30.181Z,106.80
2019-02-11T10:05:58.872Z,113.03
2019-02-11T10:08:27.410Z,111.23
2019-02-11T10:10:55.975Z,107.13
2019-02-11T10:13:24.639Z,107.77
2019-02-11T10:15:53.346Z,99.67
2019-02-11T10:18:22.039Z,103.87
2019-02-11T10:20:50.617Z,104.47
2019-02-11T10:23:19.223Z,105.57
2019-02-11T10:25:47.829Z,117.37
2019-02-11T10:28:16.474Z,100.17
2019-02-11T10:30:45.089Z,105.10
2019-02-11T10:33:15.431Z,112.20
2019-02-11T10:35:44.449Z,106.57
2019-02-11T10:38:15.155Z,104.23
2019-02-11T10:40:46.745Z,97.00
2019-02-11T10:43:15.169Z,98.67
2019-02-11T10:45:44.087Z,114.13
2019-02-11T10:48:17.782Z,93.83
2019-02-11T10:50:47.190Z,93.17
2019-02-11T10:53:26.271Z,91.60
2019-02-11T10:55:56.199Z,91.57
2019-02-11T10:58:25.224Z,81.53
2019-02-11T11:00:54.175Z,89.57
2019-02-11T11:03:23.043Z,92.60
2019-02-11T11:05:52.078Z,83.93
2019-02-11T11:08:21.049Z,83.97
2019-02-11T11:10:51.250Z,93.10
2019-02-11T11:13:24.402Z,92.57
2019-02-11T11:15:53.384Z,84.33
2019-02-11T11:18:24.957Z,88.90
2019-02-11T11:20:55.623Z,81.37
2019-02-11T11:23:27.018Z,85.93
2019-02-11T11:25:56.595Z,89.87
2019-02-11T11:28:25.420Z,86.00
2019-02-11T11:30:55.741Z,101.27
2019-02-11T11:33:26.233Z,84.90
2019-02-11T11:35:55.151Z,84.97
2019-02-11T11:38:28.308Z,83.87
2019-02-11T11:41:01.860Z,72.97
2019-02-11T11:43:30.880Z,77.03
2019-02-11T11:46:03.328Z,101.40
2019-02-11T11:48:34.237Z,86.63
2019-02-11T11:51:07.895Z,89.17
2019-02-11T11:53:38.642Z,98.17
2019-02-11T11:56:09.858Z,132.20
2019-02-11T11:58:38.454Z,131.17
2019-02-11T12:01:07.281Z,106.77
2019-02-11T12:03:41.475Z,110.43
2019-02-11T12:06:17.811Z,117.23
2019-02-11T12:08:47.067Z,126.77
2019-02-11T12:11:18.951Z,115.60
2019-02-11T12:13:47.655Z,123.10
2019-02-11T12:16:27.854Z,127.37
2019-02-11T12:19:08.155Z,124.13
2019-02-11T12:21:42.513Z,142.97
2019-02-11T12:24:13.110Z,142.20
2019-02-11T12:26:42.864Z,140.03
2019-02-11T12:29:12.345Z,153.70
2019-02-11T12:31:41.676Z,166.30
2019-02-11T12:34:10.798Z,165.23
2019-02-11T12:36:41.838Z,178.53
2019-02-11T12:39:10.625Z,181.47
2019-02-11T12:41:40.062Z,168.70
2019-02-11T12:44:10.700Z,181.60
2019-02-11T12:46:47.211Z,145.10
2019-02-11T12:49:24.502Z,137.50
2019-02-11T12:51:55.297Z,134.27
2019-02-11T12:54:32.540Z,169.73
2019-02-11T12:57:05.570Z,179.90
2019-02-11T12:59:35.028Z,162.30
2019-02-11T13:02:03.716Z,138.70
2019-02-11T13:04:32.440Z,134.13
2019-02-11T13:07:01.066Z,135.27
2019-02-11T13:09:29.710Z,123.37
2019-02-11T13:11:58.251Z,114.17
2019-02-11T13:14:29.765Z,118.07
2019-02-11T13:17:14.254Z,120.03
2019-02-11T13:19:32.185Z,117.27
2019-02-11T13:22:01.555Z,120.40
2019-02-11T13:24:32.526Z,113.17
2019-02-11T13:27:02.057Z,108.63
2019-02-11T13:29:32.332Z,97.73
2019-02-11T13:32:05.067Z,126.57
2019-02-11T13:34:34.325Z,104.43
2019-02-11T13:37:08.094Z,102.67
2019-02-11T13:39:38.368Z,110.53
2019-02-11T13:42:07.374Z,104.63
2019-02-11T13:44:41.722Z,194.70
2019-02-11T13:47:15.543Z,118.30
2019-02-11T13:49:46.542Z,115.60
2019-02-11T13:52:14.981Z,131.87
2019-02-11T13:54:46.650Z,106.33
2019-02-11T13:57:15.631Z,119.53
2019-02-11T13:59:44.574Z,103.90
2019-02-11T14:02:13.471Z,102.50
2019-02-11T14:04:42.277Z,106.07
2019-02-11T14:07:11.113Z,116.67
2019-02-11T14:09:39.737Z,114.47
2019-02-11T14:12:11.038Z,122.20
2019-02-11T14:14:39.760Z,133.80
2019-02-11T14:17:08.419Z,123.33
2019-02-11T14:19:37.061Z,134.27
2019-02-11T14:22:05.762Z,128.63
2019-02-11T14:24:34.372Z,120.50
2019-02-11T14:27:05.783Z,135.40
2019-02-11T14:29:34.286Z,127.10
2019-02-11T14:32:02.898Z,153.90
2019-02-11T14:34:31.544Z,152.83
2019-02-11T14:37:00.194Z,131.43
2019-02-11T14:39:28.827Z,136.20
2019-02-11T14:42:02.986Z,125.73
2019-02-11T14:44:31.673Z,124.27
2019-02-11T14:47:00.228Z,115.17
2019-02-11T14:49:28.797Z,114.93
2019-02-11T14:51:57.404Z,115.77
2019-02-11T14:54:25.961Z,115.80
2019-02-11T14:56:57.452Z,115.03
2019-02-11T14:59:25.933Z,126.97
2019-02-11T15:01:54.477Z,141.83
2019-02-11T15:04:28.540Z,135.90
2019-02-11T15:06:57.049Z,144.30
2019-02-11T15:09:25.784Z,157.53
2019-02-11T15:11:54.398Z,143.83
2019-02-11T15:14:23.011Z,136.07
2019-02-11T15:16:51.617Z,173.63
2019-02-11T15:19:20.189Z,172.97
2019-02-11T15:21:48.842Z,158.27
2019-02-11T15:24:17.332Z,169.70
2019-02-11T15:26:48.565Z,181.67
2019-02-11T15:29:17.120Z,369.03
2019-02-11T15:31:45.801Z,221.77
2019-02-11T15:34:16.843Z,196.17
2019-02-11T15:36:45.342Z,195.47
2019-02-11T15:39:13.945Z,190.40
2019-02-11T15:41:42.605Z,201.33
2019-02-11T15:44:11.157Z,218.37
2019-02-11T15:46:42.850Z,206.30
2019-02-11T15:49:11.452Z,232.97
2019-02-11T15:51:40.006Z,239.23
2019-02-11T15:54:11.386Z,352.43
2019-02-11T15:56:42.784Z,355.77
2019-02-11T15:59:11.411Z,312.80
2019-02-11T16:01:40.016Z,332.93
2019-02-11T16:04:14.195Z,343.67
2019-02-11T16:06:42.800Z,386.83
2019-02-11T16:09:11.443Z,464.37
2019-02-11T16:11:40.007Z,462.47
2019-02-11T16:14:08.772Z,445.63
2019-02-11T16:16:37.322Z,459.00
2019-02-11T16:19:05.904Z,433.80
2019-02-11T16:21:34.594Z,382.23
2019-02-11T16:24:08.543Z,364.40
2019-02-11T16:26:37.065Z,392.73
2019-02-11T16:29:05.713Z,423.17
2019-02-11T16:31:39.531Z,329.63
2019-02-11T16:34:08.032Z,333.53
2019-02-11T16:36:36.689Z,365.90
2019-02-11T16:39:06.065Z,356.83
2019-02-11T16:41:34.745Z,380.43
2019-02-11T16:44:03.371Z,382.40
2019-02-11T16:46:34.987Z,391.17
2019-02-11T16:49:03.558Z,394.80
2019-02-11T16:51:32.166Z,423.10
2019-02-11T16:54:06.664Z,470.23
2019-02-11T16:56:35.337Z,352.90
2019-02-11T16:59:03.898Z,368.40
2019-02-11T17:01:32.492Z,406.70
2019-02-11T17:04:00.993Z,391.13
2019-02-11T17:06:29.538Z,409.20
2019-02-11T17:08:58.104Z,350.00
2019-02-11T17:11:26.745Z,370.83
2019-02-11T17:13:55.365Z,335.73
2019-02-11T17:16:25.112Z,294.77
2019-02-11T17:18:53.880Z,271.00
2019-02-11T17:21:22.436Z,248.17
2019-02-11T17:23:51.051Z,277.20
2019-02-11T17:26:19.610Z,292.70
2019-02-11T17:28:48.170Z,305.17
2019-02-11T17:31:17.062Z,281.60
2019-02-11T17:33:48.777Z,242.40
2019-02-11T17:36:17.471Z,259.53
2019-02-11T17:38:46.122Z,254.53
2019-02-11T17:41:14.801Z,241.63
2019-02-11T17:43:43.349Z,250.33
2019-02-11T17:46:12.119Z,279.23
2019-02-11T17:48:40.684Z,284.70
2019-02-11T17:51:09.427Z,334.20
2019-02-11T17:53:41.097Z,264.37
2019-02-11T17:56:09.945Z,273.27
2019-02-11T17:58:38.584Z,262.50
2019-02-11T18:01:07.337Z,281.30
2019-02-11T18:03:35.994Z,305.20
2019-02-11T18:06:04.653Z,324.73
2019-02-11T18:08:33.231Z,340.27
2019-02-11T18:11:01.781Z,334.10
2019-02-11T18:13:30.414Z,336.10
2019-02-11T18:15:59.052Z,342.87
2019-02-11T18:18:27.736Z,341.20
2019-02-11T18:20:56.299Z,343.93
2019-02-11T18:23:25.872Z,290.67
2019-02-11T18:25:57.108Z,314.80
2019-02-11T18:28:25.718Z,331.97
2019-02-11T18:30:54.346Z,318.77
2019-02-11T18:33:23.038Z,344.40
2019-02-11T18:35:51.604Z,330.80
2019-02-11T18:38:20.106Z,319.27
2019-02-11T18:40:48.780Z,321.43
2019-02-11T18:43:17.744Z,312.53
2019-02-11T18:45:46.365Z,332.37
2019-02-11T18:48:18.029Z,350.63
2019-02-11T18:50:46.700Z,342.37
2019-02-11T18:53:15.319Z,331.93
2019-02-11T18:55:43.943Z,340.77
2019-02-11T18:58:12.580Z,293.77
2019-02-11T19:00:41.203Z,287.60
2019-02-11T19:03:12.466Z,312.87
2019-02-11T19:05:41.073Z,324.00
2019-02-11T19:08:09.708Z,299.00
2019-02-11T19:10:41.216Z,295.60
2019-02-11T19:13:12.772Z,281.87
2019-02-11T19:15:41.476Z,271.43
2019-02-11T19:18:12.855Z,256.93
2019-02-11T19:20:41.483Z,271.37
2019-02-11T19:23:10.058Z,269.67
2019-02-11T19:25:41.582Z,270.27
2019-02-11T19:28:10.212Z,247.40
2019-02-11T19:30:38.778Z,266.50
2019-02-11T19:33:07.342Z,268.27
2019-02-11T19:35:35.912Z,272.63
2019-02-11T19:38:04.670Z,319.17
2019-02-11T19:40:33.374Z,324.80
2019-02-11T19:43:01.964Z,310.83
2019-02-11T19:45:30.583Z,342.20
2019-02-11T19:48:02.060Z,321.80
2019-02-11T19:50:30.678Z,336.13
2019-02-11T19:52:59.292Z,311.23
2019-02-11T19:55:27.847Z,290.37
2019-02-11T19:57:56.531Z,254.30
2019-02-11T20:00:25.185Z,250.27
2019-02-11T20:02:53.792Z,274.57
2019-02-11T20:05:22.445Z,304.70
2019-02-11T20:07:51.065Z,317.03
2019-02-11T20:10:21.587Z,383.43
2019-02-11T20:12:50.395Z,399.43
2019-02-11T20:15:24.578Z,400.03
2019-02-11T20:17:55.955Z,404.00
2019-02-11T20:20:24.611Z,379.77
2019-02-11T20:22:53.145Z,372.60
2019-02-11T20:25:21.783Z,354.27
2019-02-11T20:27:50.464Z,347.23
2019-02-11T20:30:26.805Z,358.27
2019-02-11T20:32:55.506Z,344.30
2019-02-11T20:35:24.158Z,318.27
2019-02-11T20:37:52.728Z,340.57
2019-02-11T20:40:29.362Z,342.47
2019-02-11T20:42:57.997Z,338.47
2019-02-11T20:45:28.324Z,323.50
2019-02-11T20:48:00.315Z,314.03
2019-02-11T20:50:31.932Z,301.80
2019-02-11T20:53:00.574Z,301.77
2019-02-11T20:55:29.247Z,324.50
2019-02-11T20:57:59.950Z,305.43
2019-02-11T21:00:28.627Z,288.77
2019-02-11T21:02:57.264Z,264.67
2019-02-11T21:05:25.935Z,254.93
2019-02-11T21:07:54.595Z,259.73
2019-02-11T21:10:25.381Z,238.00
2019-02-11T21:12:54.029Z,249.20
2019-02-11T21:15:22.905Z,256.60
2019-02-11T21:17:51.548Z,252.00
2019-02-11T21:20:33.766Z,244.03
2019-02-11T21:23:02.402Z,245.27
2019-02-11T21:25:31.076Z,212.00
2019-02-11T21:27:59.719Z,245.73
2019-02-11T21:30:28.406Z,256.93
2019-02-11T21:32:56.982Z,252.17
2019-02-11T21:35:26.038Z,250.83
2019-02-11T21:37:54.706Z,260.80
2019-02-11T21:40:23.463Z,271.30
2019-02-11T21:42:52.108Z,262.93
2019-02-11T21:45:23.443Z,288.57
2019-02-11T21:47:52.045Z,272.27
2019-02-11T21:50:26.697Z,265.80
2019-02-11T21:52:52.451Z,296.70
2019-02-11T21:55:26.848Z,256.50
2019-02-11T21:57:55.485Z,279.27
2019-02-11T22:00:24.342Z,319.47
2019-02-11T22:02:55.395Z,320.77
2019-02-11T22:05:26.831Z,344.10
2019-02-11T22:07:55.448Z,333.93
2019-02-11T22:10:24.439Z,335.97
2019-02-11T22:12:53.049Z,342.67
2019-02-11T22:15:21.743Z,333.60
2019-02-11T22:17:53.105Z,374.70
2019-02-11T22:20:22.342Z,389.83
2019-02-11T22:22:50.985Z,367.60
2019-02-11T22:25:19.639Z,377.27
2019-02-11T22:27:48.183Z,398.23
2019-02-11T22:30:21.949Z,352.33
2019-02-11T22:32:50.504Z,368.60
2019-02-11T22:35:19.150Z,364.00
2019-02-11T22:37:49.697Z,315.57
2019-02-11T22:40:18.454Z,338.23
2019-02-11T22:42:47.192Z,318.37
2019-02-11T22:45:17.978Z,333.53
2019-02-11T22:47:46.616Z,305.43
2019-02-11T22:50:15.292Z,332.57
2019-02-11T22:52:43.977Z,291.57
2019-02-11T22:55:14.334Z,282.50
2019-02-11T22:57:43.014Z,295.30
2019-02-11T23:00:28.749Z,296.50
2019-02-11T23:02:57.612Z,276.60
2019-02-11T23:05:26.175Z,269.33
2019-02-11T23:07:54.785Z,296.50
2019-02-11T23:10:23.455Z,283.67
2019-02-11T23:12:52.018Z,286.73
2019-02-11T23:15:20.688Z,277.13
2019-02-11T23:17:49.296Z,249.33
2019-02-11T23:20:17.914Z,253.80
2019-02-11T23:22:46.485Z,254.87
2019-02-11T23:25:15.053Z,236.93
2019-02-11T23:27:43.662Z,253.37
2019-02-11T23:30:13.802Z,241.57
2019-02-11T23:32:45.727Z,237.53
2019-02-11T23:35:14.432Z,227.67
2019-02-11T23:37:43.054Z,223.97
2019-02-11T23:40:11.691Z,219.70
2019-02-11T23:42:40.379Z,220.27
2019-02-11T23:45:11.327Z,202.93
2019-02-11T23:47:40.812Z,211.13
2019-02-11T23:50:11.414Z,218.13
2019-02-11T23:52:40.050Z,218.43
2019-02-11T23:55:11.560Z,217.30
2019-02-11T23:57:41.124Z,217.20
